createdAt,value
2018-07-24T00:02:08.527Z,9.88
2018-07-24T00:04:37.084Z,9.15
2018-07-24T00:07:05.792Z,10.45
2018-07-24T00:09:34.347Z,9.83
2018-07-24T00:12:02.776Z,9.88
2018-07-24T00:14:31.241Z,10.48
2018-07-24T00:16:59.723Z,9.88
2018-07-24T00:19:28.176Z,9.83
2018-07-24T00:21:56.926Z,9.73
2018-07-24T00:24:25.340Z,10.30
2018-07-24T00:26:53.899Z,9.43
2018-07-24T00:29:22.304Z,8.68
2018-07-24T00:31:50.792Z,9.03
2018-07-24T00:34:19.397Z,8.75
2018-07-24T00:36:47.844Z,8.85
2018-07-24T00:39:16.434Z,8.48
2018-07-24T00:41:44.917Z,8.68
2018-07-24T00:44:13.464Z,7.20
2018-07-24T00:46:41.949Z,8.13
2018-07-24T00:49:10.383Z,8.63
2018-07-24T00:51:38.895Z,8.58
2018-07-24T00:54:07.342Z,9.45
2018-07-24T00:56:48.580Z,9.73
2018-07-24T00:59:17.368Z,8.60
2018-07-24T01:01:45.836Z,9.13
2018-07-24T01:04:14.296Z,9.80
2018-07-24T01:06:42.752Z,9.40
2018-07-24T01:09:11.818Z,9.40
2018-07-24T01:11:40.633Z,11.55
2018-07-24T01:14:09.800Z,10.35
2018-07-24T01:16:37.995Z,9.10
2018-07-24T01:19:06.752Z,8.75
2018-07-24T01:21:35.229Z,10.20
2018-07-24T01:24:03.347Z,8.80
2018-07-24T01:26:31.821Z,9.50
2018-07-24T01:29:00.232Z,9.50
2018-07-24T01:31:28.684Z,8.98
2018-07-24T01:33:57.235Z,9.78
2018-07-24T01:36:25.692Z,10.88
2018-07-24T01:38:54.136Z,9.28
2018-07-24T01:41:22.642Z,9.88
2018-07-24T01:43:51.065Z,9.35
2018-07-24T01:46:20.002Z,9.23
2018-07-24T01:48:48.417Z,9.68
2018-07-24T01:51:16.853Z,9.78
2018-07-24T01:53:45.257Z,9.30
2018-07-24T01:56:13.701Z,9.10
2018-07-24T01:58:42.118Z,8.93
2018-07-24T02:01:10.564Z,8.80
2018-07-24T02:03:38.979Z,8.83
2018-07-24T02:06:07.436Z,8.55
2018-07-24T02:08:36.038Z,8.05
2018-07-24T02:11:04.492Z,9.00
2018-07-24T02:13:32.920Z,9.23
2018-07-24T02:16:01.416Z,10.25
2018-07-24T02:18:29.832Z,9.80
2018-07-24T02:20:58.336Z,9.78
2018-07-24T02:23:26.771Z,9.73
2018-07-24T02:25:54.907Z,9.35
2018-07-24T02:28:23.341Z,9.53
2018-07-24T02:30:51.876Z,9.03
2018-07-24T02:33:20.364Z,9.58
2018-07-24T02:35:48.813Z,9.60
2018-07-24T02:38:17.360Z,10.05
2018-07-24T02:40:45.809Z,9.68
2018-07-24T02:43:14.348Z,9.75
2018-07-24T02:45:42.780Z,10.08
2018-07-24T02:48:11.249Z,9.90
2018-07-24T02:50:39.648Z,10.35
2018-07-24T02:53:08.136Z,9.43
2018-07-24T02:55:36.684Z,11.45
2018-07-24T02:58:05.203Z,11.00
2018-07-24T03:00:33.661Z,10.75
2018-07-24T03:03:02.123Z,10.10
2018-07-24T03:05:30.573Z,10.68
2018-07-24T03:08:21.045Z,11.60
2018-07-24T03:10:49.546Z,10.68
2018-07-24T03:13:18.042Z,11.73
2018-07-24T03:15:46.550Z,11.33
2018-07-24T03:18:15.035Z,11.80
2018-07-24T03:20:43.471Z,12.40
2018-07-24T03:23:12.137Z,11.40
2018-07-24T03:25:40.583Z,12.40
2018-07-24T03:28:09.080Z,12.23
2018-07-24T03:30:37.528Z,11.90
2018-07-24T03:33:06.027Z,11.03
2018-07-24T03:35:34.472Z,10.80
2018-07-24T03:38:02.941Z,12.13
2018-07-24T03:40:31.488Z,11.57
2018-07-24T03:42:59.968Z,10.60
2018-07-24T03:45:28.432Z,11.10
2018-07-24T03:47:57.101Z,11.53
2018-07-24T03:50:25.602Z,11.20
2018-07-24T03:52:53.764Z,10.50
2018-07-24T03:55:22.208Z,10.50
2018-07-24T03:57:50.725Z,10.55
2018-07-24T04:00:19.273Z,10.08
2018-07-24T04:02:47.792Z,11.05
2018-07-24T04:05:16.817Z,10.70
2018-07-24T04:07:49.718Z,11.05
2018-07-24T04:10:18.757Z,10.95
2018-07-24T04:12:47.375Z,11.48
2018-07-24T04:15:16.029Z,10.68
2018-07-24T04:17:44.748Z,10.93
2018-07-24T04:20:13.233Z,10.45
2018-07-24T04:22:41.776Z,9.98
2018-07-24T04:25:10.257Z,10.55
2018-07-24T04:27:38.809Z,10.40
2018-07-24T04:33:38.857Z,9.80
2018-07-24T04:36:07.314Z,10.68
2018-07-24T04:38:35.796Z,10.68
2018-07-24T04:41:04.592Z,9.95
2018-07-24T04:43:33.041Z,10.13
2018-07-24T04:46:01.599Z,9.73
2018-07-24T04:48:30.209Z,9.28
2018-07-24T04:50:58.580Z,9.63
2018-07-24T04:53:26.996Z,9.58
2018-07-24T04:55:55.392Z,9.93
2018-07-24T04:58:23.836Z,9.80
2018-07-24T05:00:52.253Z,10.68
2018-07-24T05:03:20.723Z,9.73
2018-07-24T05:05:49.153Z,10.28
2018-07-24T05:08:17.696Z,10.80
2018-07-24T05:10:46.165Z,10.00
2018-07-24T05:13:14.641Z,10.48
2018-07-24T05:15:42.779Z,11.48
2018-07-24T05:18:11.196Z,11.15
2018-07-24T05:20:39.608Z,10.38
2018-07-24T05:23:08.072Z,10.53
2018-07-24T05:25:36.581Z,10.15
2018-07-24T05:28:04.999Z,10.08
2018-07-24T05:30:33.430Z,10.15
2018-07-24T05:33:01.895Z,9.83
2018-07-24T05:35:30.321Z,10.20
2018-07-24T05:37:58.739Z,10.63
2018-07-24T05:40:27.289Z,9.68
2018-07-24T05:42:55.949Z,10.40
2018-07-24T05:45:24.388Z,9.85
2018-07-24T05:47:52.908Z,10.40
2018-07-24T05:50:21.057Z,9.33
2018-07-24T05:52:49.553Z,9.25
2018-07-24T05:55:17.990Z,9.23
2018-07-24T05:57:46.457Z,9.40
2018-07-24T06:00:14.887Z,9.15
2018-07-24T06:02:43.280Z,8.40
2018-07-24T06:05:11.792Z,8.35
2018-07-24T06:07:40.392Z,9.18
2018-07-24T06:10:08.821Z,8.65
2018-07-24T06:12:37.216Z,8.50
2018-07-24T06:15:05.774Z,8.48
2018-07-24T06:17:34.203Z,8.15
2018-07-24T06:20:02.645Z,7.47
2018-07-24T06:22:31.036Z,7.70
2018-07-24T06:24:59.433Z,8.13
2018-07-24T06:27:27.806Z,6.95
2018-07-24T06:29:56.232Z,6.60
2018-07-24T06:32:24.635Z,7.10
2018-07-24T06:34:53.067Z,6.97
2018-07-24T06:37:21.745Z,6.85
2018-07-24T06:39:49.946Z,6.05
2018-07-24T06:42:18.552Z,6.92
2018-07-24T06:44:46.969Z,6.42
2018-07-24T06:47:15.426Z,6.22
2018-07-24T06:49:43.825Z,6.40
2018-07-24T06:52:12.304Z,5.97
2018-07-24T06:54:40.736Z,5.87
2018-07-24T06:57:09.159Z,5.78
2018-07-24T06:59:37.709Z,6.47
2018-07-24T07:02:06.495Z,5.35
2018-07-24T07:04:34.917Z,6.58
2018-07-24T07:07:03.357Z,6.33
2018-07-24T07:09:31.808Z,6.35
2018-07-24T07:12:00.230Z,6.78
2018-07-24T07:14:28.628Z,6.78
2018-07-24T07:16:56.753Z,6.42
2018-07-24T07:19:25.128Z,6.62
2018-07-24T07:21:53.544Z,6.60
2018-07-24T07:24:21.974Z,6.50
2018-07-24T07:26:50.426Z,6.70
2018-07-24T07:29:18.845Z,5.65
2018-07-24T07:31:47.290Z,6.08
2018-07-24T07:34:15.906Z,6.30
2018-07-24T07:36:44.451Z,6.53
2018-07-24T07:39:13.080Z,5.45
2018-07-24T07:41:41.677Z,6.12
2018-07-24T07:44:10.127Z,5.78
2018-07-24T07:46:38.532Z,5.50
2018-07-24T07:49:06.943Z,6.42
2018-07-24T07:51:35.428Z,5.65
2018-07-24T07:54:03.893Z,6.35
2018-07-24T07:56:32.324Z,5.72
2018-07-24T07:59:00.724Z,5.87
2018-07-24T08:01:29.169Z,6.00
2018-07-24T08:03:57.579Z,5.72
2018-07-24T08:06:26.044Z,5.80
2018-07-24T08:08:54.440Z,6.12
2018-07-24T08:11:22.939Z,5.37
2018-07-24T08:13:51.511Z,4.80
2018-07-24T08:16:19.973Z,5.22
2018-07-24T08:18:48.383Z,4.70
2018-07-24T08:21:16.851Z,4.25
2018-07-24T08:23:45.264Z,3.80
2018-07-24T08:26:13.734Z,4.22
2018-07-24T08:28:42.125Z,4.30
2018-07-24T08:31:10.572Z,4.37
2018-07-24T08:33:39.033Z,4.75
2018-07-24T08:36:07.514Z,4.30
2018-07-24T08:38:35.962Z,3.92
2018-07-24T08:41:04.436Z,4.70
2018-07-24T08:43:32.841Z,4.53
2018-07-24T08:46:01.254Z,3.83
2018-07-24T08:48:29.720Z,3.95
2018-07-24T08:50:57.843Z,4.08
2018-07-24T08:53:26.467Z,4.00
2018-07-24T08:55:54.746Z,3.58
2018-07-24T08:58:23.145Z,3.45
2018-07-24T09:00:51.589Z,3.98
2018-07-24T09:03:20.068Z,3.92
2018-07-24T09:05:48.547Z,3.30
2018-07-24T09:08:17.054Z,3.90
2018-07-24T09:10:45.453Z,4.35
2018-07-24T09:13:13.622Z,3.40
2018-07-24T09:15:42.092Z,3.45
2018-07-24T09:18:10.540Z,4.62
2018-07-24T09:20:38.925Z,4.58
2018-07-24T09:23:07.438Z,4.80
2018-07-24T09:25:35.642Z,4.37
2018-07-24T09:28:04.101Z,4.62
2018-07-24T09:30:32.655Z,4.30
2018-07-24T09:33:01.127Z,4.60
2018-07-24T09:35:29.231Z,4.92
2018-07-24T09:37:57.657Z,4.37
2018-07-24T09:40:26.148Z,5.25
2018-07-24T09:42:54.542Z,4.97
2018-07-24T09:45:22.944Z,4.90
2018-07-24T09:47:51.424Z,4.58
2018-07-24T09:50:19.864Z,4.20
2018-07-24T09:52:48.378Z,4.75
2018-07-24T09:55:16.881Z,4.97
2018-07-24T09:57:45.308Z,4.58
2018-07-24T10:00:13.440Z,4.62
2018-07-24T10:02:41.884Z,4.20
2018-07-24T10:05:10.276Z,4.92
2018-07-24T10:07:38.729Z,4.85
2018-07-24T10:10:07.168Z,4.85
2018-07-24T10:12:36.740Z,4.90
2018-07-24T10:15:05.340Z,4.35
2018-07-24T10:17:33.496Z,4.58
2018-07-24T10:20:01.917Z,4.55
2018-07-24T10:22:30.360Z,3.98
2018-07-24T10:24:58.764Z,4.72
2018-07-24T10:27:27.278Z,3.65
2018-07-24T10:29:55.709Z,4.28
2018-07-24T10:32:23.926Z,3.95
2018-07-24T10:34:52.361Z,4.65
2018-07-24T10:37:20.897Z,3.55
2018-07-24T10:39:49.352Z,3.85
2018-07-24T10:42:17.783Z,3.77
2018-07-24T10:44:46.251Z,3.42
2018-07-24T10:47:14.699Z,3.87
2018-07-24T10:49:43.283Z,4.33
2018-07-24T10:52:11.429Z,3.72
2018-07-24T10:54:39.952Z,3.35
2018-07-24T10:57:08.447Z,3.40
2018-07-24T10:59:36.995Z,3.50
2018-07-24T11:02:05.458Z,4.30
2018-07-24T11:04:33.900Z,3.67
2018-07-24T11:07:02.375Z,4.30
2018-07-24T11:09:30.504Z,3.85
2018-07-24T11:11:58.892Z,4.67
2018-07-24T11:14:27.309Z,3.27
2018-07-24T11:16:55.684Z,3.92
2018-07-24T11:19:24.356Z,3.42
2018-07-24T11:21:52.764Z,3.92
2018-07-24T11:24:21.247Z,3.67
2018-07-24T11:26:49.720Z,4.28
2018-07-24T11:29:18.124Z,3.67
2018-07-24T11:31:46.521Z,3.92
2018-07-24T11:34:14.980Z,2.90
2018-07-24T11:36:43.419Z,3.15
2018-07-24T11:39:12.340Z,3.15
2018-07-24T11:41:40.864Z,3.33
2018-07-24T11:44:09.393Z,2.85
2018-07-24T11:46:37.782Z,3.00
2018-07-24T11:49:06.226Z,2.90
2018-07-24T11:51:34.630Z,3.58
2018-07-24T11:54:03.047Z,3.17
2018-07-24T11:56:31.450Z,3.90
2018-07-24T11:58:59.907Z,2.95
2018-07-24T12:01:28.304Z,3.60
2018-07-24T12:03:56.771Z,3.42
2018-07-24T12:06:25.227Z,3.45
2018-07-24T12:08:53.715Z,3.12
2018-07-24T12:11:22.123Z,3.58
2018-07-24T12:13:50.537Z,3.47
2018-07-24T12:16:19.420Z,3.40
2018-07-24T12:18:48.162Z,3.67
2018-07-24T12:21:16.578Z,4.17
2018-07-24T12:23:45.027Z,3.42
2018-07-24T12:26:13.474Z,3.87
2018-07-24T12:28:42.059Z,3.42
2018-07-24T12:31:10.491Z,3.45
2018-07-24T12:33:38.951Z,3.35
2018-07-24T12:36:07.492Z,3.27
2018-07-24T12:38:35.835Z,3.70
2018-07-24T12:41:04.375Z,4.12
2018-07-24T12:43:32.548Z,4.33
2018-07-24T12:46:00.990Z,3.55
2018-07-24T12:48:29.091Z,2.98
2018-07-24T12:50:57.561Z,3.35
2018-07-24T12:53:26.027Z,3.72
2018-07-24T12:55:54.497Z,3.02
2018-07-24T12:58:22.904Z,3.25
2018-07-24T13:00:51.032Z,3.37
2018-07-24T13:03:19.444Z,3.47
2018-07-24T13:05:47.885Z,3.47
2018-07-24T13:08:16.345Z,3.60
2018-07-24T13:10:44.830Z,3.42
2018-07-24T13:13:13.260Z,3.50
2018-07-24T13:15:41.684Z,3.77
2018-07-24T13:18:10.065Z,2.90
2018-07-24T13:20:38.468Z,3.55
2018-07-24T13:23:06.889Z,3.30
2018-07-24T13:25:35.302Z,4.37
2018-07-24T13:28:03.707Z,2.98
2018-07-24T13:30:32.129Z,3.15
2018-07-24T13:33:00.554Z,3.33
2018-07-24T13:35:29.010Z,3.15
2018-07-24T13:37:57.413Z,3.60
2018-07-24T13:40:25.958Z,3.37
2018-07-24T13:42:54.427Z,3.05
2018-07-24T13:45:22.938Z,3.17
2018-07-24T13:47:51.364Z,3.80
2018-07-24T13:50:19.796Z,3.40
2018-07-24T13:52:48.292Z,2.75
2018-07-24T13:55:16.770Z,2.80
2018-07-24T13:57:45.172Z,3.15
2018-07-24T14:00:13.615Z,3.50
2018-07-24T14:02:42.068Z,2.95
2018-07-24T14:05:10.503Z,3.60
2018-07-24T14:07:38.897Z,3.05
2018-07-24T14:10:07.384Z,3.12
2018-07-24T14:12:35.832Z,3.55
2018-07-24T14:15:04.697Z,3.10
2018-07-24T14:17:33.168Z,3.20
2018-07-24T14:20:01.663Z,3.47
2018-07-24T14:22:30.091Z,3.02
2018-07-24T14:24:58.553Z,2.42
2018-07-24T14:27:26.997Z,3.40
2018-07-24T14:29:55.564Z,3.20
2018-07-24T14:32:24.041Z,3.35
2018-07-24T14:34:52.486Z,3.35
2018-07-24T14:37:20.960Z,3.77
2018-07-24T14:39:49.384Z,2.77
2018-07-24T14:42:17.848Z,3.22
2018-07-24T14:44:45.976Z,3.10
2018-07-24T14:47:14.416Z,3.92
2018-07-24T14:49:42.828Z,3.12
2018-07-24T14:52:11.253Z,2.80
2018-07-24T14:54:39.656Z,3.15
2018-07-24T14:57:08.061Z,2.83
2018-07-24T14:59:36.472Z,2.85
2018-07-24T15:02:04.920Z,3.12
2018-07-24T15:04:33.346Z,3.85
2018-07-24T15:07:01.769Z,2.92
2018-07-24T15:09:30.185Z,3.58
2018-07-24T15:11:59.057Z,3.30
2018-07-24T15:14:27.480Z,3.47
2018-07-24T15:16:55.993Z,3.50
2018-07-24T15:19:24.419Z,3.12
2018-07-24T15:21:52.879Z,2.87
2018-07-24T15:24:21.313Z,2.58
2018-07-24T15:26:49.434Z,2.80
2018-07-24T15:29:17.825Z,3.22
2018-07-24T15:31:46.236Z,3.22
2018-07-24T15:34:14.745Z,3.00
2018-07-24T15:36:43.141Z,3.65
2018-07-24T15:39:13.304Z,3.50
2018-07-24T15:41:42.715Z,2.83
2018-07-24T15:44:10.883Z,3.20
2018-07-24T15:46:39.376Z,3.12
2018-07-24T15:49:07.816Z,3.12
2018-07-24T15:51:36.270Z,3.10
2018-07-24T15:54:04.983Z,2.90
2018-07-24T15:56:33.400Z,2.62
2018-07-24T15:59:01.851Z,2.90
2018-07-24T16:01:30.278Z,3.00
2018-07-24T16:03:58.696Z,2.60
2018-07-24T16:06:27.131Z,2.67
2018-07-24T16:08:55.560Z,2.67
2018-07-24T16:11:23.993Z,2.72
2018-07-24T16:13:52.439Z,2.70
2018-07-24T16:16:20.881Z,2.47
2018-07-24T16:18:49.281Z,2.85
2018-07-24T16:21:17.528Z,2.70
2018-07-24T16:23:45.897Z,2.60
2018-07-24T16:26:14.034Z,2.75
2018-07-24T16:28:42.495Z,3.60
2018-07-24T16:31:10.947Z,2.83
2018-07-24T16:33:39.412Z,2.85
2018-07-24T16:36:07.729Z,3.33
2018-07-24T16:38:36.489Z,2.90
2018-07-24T16:41:04.922Z,2.77
2018-07-24T16:43:33.495Z,2.70
2018-07-24T16:46:02.319Z,2.90
2018-07-24T16:48:30.472Z,3.22
2018-07-24T16:50:58.623Z,3.20
2018-07-24T16:53:27.097Z,2.67
2018-07-24T16:55:55.987Z,2.98
2018-07-24T16:58:24.436Z,2.50
2018-07-24T17:00:52.885Z,2.55
2018-07-24T17:03:21.417Z,3.15
2018-07-24T17:05:49.962Z,2.98
2018-07-24T17:08:18.478Z,2.72
2018-07-24T17:10:46.872Z,2.92
2018-07-24T17:13:15.275Z,3.80
2018-07-24T17:15:43.700Z,2.98
2018-07-24T17:18:12.163Z,4.22
2018-07-24T17:20:40.601Z,2.87
2018-07-24T17:23:09.113Z,3.30
2018-07-24T17:25:37.294Z,3.52
2018-07-24T17:28:05.728Z,3.15
2018-07-24T17:30:34.152Z,3.40
2018-07-24T17:33:02.586Z,3.30
2018-07-24T17:35:30.732Z,3.47
2018-07-24T17:37:59.145Z,2.80
2018-07-24T17:40:27.670Z,2.92
2018-07-24T17:42:56.096Z,3.33
2018-07-24T17:45:24.260Z,3.37
2018-07-24T17:47:52.677Z,3.47
2018-07-24T17:50:21.116Z,3.00
2018-07-24T17:52:49.540Z,2.90
2018-07-24T17:55:17.965Z,3.33
2018-07-24T17:57:46.408Z,3.30
2018-07-24T18:00:14.805Z,3.05
2018-07-24T18:02:43.214Z,3.15
2018-07-24T18:05:11.669Z,3.15
2018-07-24T18:07:39.752Z,3.70
2018-07-24T18:10:08.287Z,2.95
2018-07-24T18:12:36.369Z,3.25
2018-07-24T18:15:04.877Z,2.85
2018-07-24T18:17:33.309Z,3.17
2018-07-24T18:20:01.751Z,3.45
2018-07-24T18:22:30.168Z,3.15
2018-07-24T18:24:58.608Z,3.10
2018-07-24T18:27:27.033Z,2.72
2018-07-24T18:29:55.508Z,3.80
2018-07-24T18:32:23.940Z,3.20
2018-07-24T18:34:52.414Z,3.60
2018-07-24T18:37:20.841Z,3.55
2018-07-24T18:39:49.349Z,2.83
2018-07-24T18:42:17.796Z,3.25
2018-07-24T18:44:46.258Z,3.35
2018-07-24T18:47:14.632Z,3.47
2018-07-24T18:49:43.049Z,3.42
2018-07-24T18:52:11.465Z,2.72
2018-07-24T18:54:39.881Z,3.30
2018-07-24T18:57:08.281Z,3.95
2018-07-24T18:59:36.732Z,3.22
2018-07-24T19:02:05.229Z,3.35
2018-07-24T19:04:33.651Z,3.37
2018-07-24T19:07:02.082Z,3.98
2018-07-24T19:09:30.212Z,3.80
2018-07-24T19:11:58.667Z,4.42
2018-07-24T19:14:27.093Z,4.58
2018-07-24T19:16:55.519Z,4.33
2018-07-24T19:19:23.964Z,3.70
2018-07-24T19:21:52.368Z,4.70
2018-07-24T19:24:20.821Z,4.25
2018-07-24T19:26:49.275Z,4.30
2018-07-24T19:29:17.732Z,4.40
2018-07-24T19:31:46.171Z,3.75
2018-07-24T19:34:14.744Z,4.65
2018-07-24T19:36:43.190Z,4.45
2018-07-24T19:39:12.267Z,4.67
2018-07-24T19:41:41.089Z,5.03
2018-07-24T19:44:10.145Z,4.70
2018-07-24T19:46:38.753Z,4.22
2018-07-24T19:49:09.012Z,4.90
2018-07-24T19:51:37.497Z,4.10
2018-07-24T19:54:05.912Z,4.83
2018-07-24T19:56:34.365Z,5.22
2018-07-24T19:59:02.802Z,5.55
2018-07-24T20:01:30.941Z,5.22
2018-07-24T20:03:59.380Z,5.15
2018-07-24T20:06:27.812Z,4.92
2018-07-24T20:08:56.219Z,5.35
2018-07-24T20:11:24.660Z,5.55
2018-07-24T20:13:53.053Z,6.20
2018-07-24T20:16:21.511Z,6.12
2018-07-24T20:18:49.721Z,5.92
2018-07-24T20:21:18.284Z,6.67
2018-07-24T20:23:46.661Z,6.58
2018-07-24T20:26:15.177Z,6.50
2018-07-24T20:28:43.658Z,6.55
2018-07-24T20:31:12.076Z,6.58
2018-07-24T20:33:40.457Z,6.53
2018-07-24T20:36:08.926Z,6.15
2018-07-24T20:38:38.448Z,6.20
2018-07-24T20:41:07.189Z,6.35
2018-07-24T20:43:35.708Z,6.72
2018-07-24T20:46:04.289Z,6.60
2018-07-24T20:48:32.700Z,6.47
2018-07-24T20:51:01.141Z,7.08
2018-07-24T20:53:29.587Z,7.15
2018-07-24T20:55:58.056Z,6.55
2018-07-24T20:58:26.493Z,6.92
2018-07-24T21:00:54.936Z,7.12
2018-07-24T21:03:23.331Z,6.55
2018-07-24T21:05:51.830Z,6.25
2018-07-24T21:08:20.274Z,7.17
2018-07-24T21:10:48.692Z,7.08
2018-07-24T21:13:17.161Z,7.12
2018-07-24T21:15:45.586Z,6.97
2018-07-24T21:18:13.993Z,7.22
2018-07-24T21:20:42.451Z,6.28
2018-07-24T21:23:10.878Z,6.75
2018-07-24T21:25:39.285Z,7.47
2018-07-24T21:28:07.681Z,6.90
2018-07-24T21:30:36.113Z,6.30
2018-07-24T21:33:04.513Z,6.50
2018-07-24T21:35:32.962Z,7.08
2018-07-24T21:38:01.339Z,6.42
2018-07-24T21:40:29.760Z,6.97
2018-07-24T21:42:58.236Z,6.78
2018-07-24T21:45:26.585Z,6.33
2018-07-24T21:47:54.996Z,6.92
2018-07-24T21:50:23.375Z,5.95
2018-07-24T21:52:51.781Z,6.65
2018-07-24T21:55:20.172Z,6.85
2018-07-24T21:57:48.623Z,7.28
2018-07-24T22:00:17.065Z,6.75
2018-07-24T22:02:45.475Z,6.40
2018-07-24T22:05:13.919Z,6.78
2018-07-24T22:07:42.391Z,6.83
2018-07-24T22:10:16.215Z,6.87
2018-07-24T22:12:44.427Z,6.30
2018-07-24T22:15:28.393Z,6.72
2018-07-24T22:17:57.659Z,6.55
2018-07-24T22:20:26.067Z,6.62
2018-07-24T22:22:54.508Z,7.33
2018-07-24T22:25:22.884Z,6.87
2018-07-24T22:27:51.313Z,6.05
2018-07-24T22:30:19.714Z,7.17
2018-07-24T22:32:48.243Z,6.92
2018-07-24T22:35:16.656Z,7.30
2018-07-24T22:37:45.123Z,7.37
2018-07-24T22:40:13.554Z,6.90
2018-07-24T22:42:42.001Z,7.22
2018-07-24T22:45:10.400Z,7.12
2018-07-24T22:47:38.815Z,6.80
2018-07-24T22:50:07.459Z,7.22
2018-07-24T22:52:36.560Z,6.33
2018-07-24T22:55:05.061Z,7.25
2018-07-24T22:57:33.497Z,6.55
2018-07-24T23:00:01.883Z,7.00
2018-07-24T23:02:30.407Z,6.15
2018-07-24T23:04:58.801Z,6.83
2018-07-24T23:07:27.223Z,6.67
2018-07-24T23:09:55.656Z,7.28
2018-07-24T23:12:24.290Z,6.65
2018-07-24T23:14:52.684Z,6.87
2018-07-24T23:17:21.305Z,6.85
2018-07-24T23:19:49.967Z,6.40
2018-07-24T23:22:18.423Z,6.47
2018-07-24T23:24:46.828Z,6.80
2018-07-24T23:27:15.261Z,6.50
2018-07-24T23:29:43.657Z,6.75
2018-07-24T23:32:12.299Z,6.78
2018-07-24T23:34:41.545Z,6.92
2018-07-24T23:37:09.971Z,6.37
2018-07-24T23:39:38.464Z,6.45
2018-07-24T23:42:06.903Z,6.62
2018-07-24T23:44:34.995Z,6.60
2018-07-24T23:47:03.408Z,6.22
2018-07-24T23:49:31.918Z,6.42
2018-07-24T23:52:00.091Z,8.33
2018-07-24T23:54:28.516Z,6.75
2018-07-24T23:56:56.908Z,6.85
2018-07-24T23:59:25.355Z,6.72
